EST,Max TemperatureF,Mean TemperatureF,Min TemperatureF,Max Dew PointF,MeanDew PointF,Min DewpointF,Max Humidity, Mean Humidity, Min Humidity, Max Sea Level PressureIn, Mean Sea Level PressureIn, Min Sea Level PressureIn, Max VisibilityMiles, Mean VisibilityMiles, Min VisibilityMiles, Max Wind SpeedMPH, Mean Wind SpeedMPH, Max Gust SpeedMPH,PrecipitationIn, CloudCover, Events, WindDirDegrees
2013-12-1,62,40,19,27,19,14,93,57,15,30.35,30.17,30.00,10,10,7,9,2,,0.00,0,,210
2013-12-2,66,45,24,36,26,16,93,57,24,30.00,29.89,29.83,10,10,4,5,1,,0.00,4,,9
2013-12-3,62,48,33,39,33,25,87,58,34,29.99,29.92,29.86,10,10,7,10,1,,0.00,4,,212
2013-12-4,66,55,44,54,46,34,100,77,52,30.07,30.02,29.98,10,8,2,7,1,,0.00,8,,178
2013-12-5,66,60,55,64,61,54,100,94,88,30.09,30.03,29.98,10,7,2,10,4,18,0.10,8,Rain,194
2013-12-6,77,60,44,64,55,43,94,80,50,30.11,29.98,29.92,10,10,5,16,11,23,0.06,8,Rain-Thunderstorm,199
2013-12-7,48,42,35,43,35,27,100,78,53,30.50,30.33,30.08,10,10,5,13,7,20,0.19,7,Rain,22
2013-12-8,35,34,32,32,29,21,93,84,56,30.52,30.43,30.28,10,5,1,10,5,,0.00,8,Snow,22
2013-12-9,39,37,35,37,37,36,100,96,93,30.29,30.10,30.03,10,6,1,7,1,,0.03,2,,212
2013-12-10,48,38,28,45,27,16,100,69,42,30.26,30.10,29.96,10,9,2,10,3,,0.33,3,Rain,245
2013-12-11,46,34,21,25,18,12,80,54,25,30.41,30.30,30.24,10,10,10,9,3,,0.04,0,,220
2013-12-12,42,34,26,21,8,-9,80,38,12,30.40,30.32,30.25,10,10,10,10,2,16,0.00,0,,276
2013-12-13,50,36,23,23,11,3,65,38,17,30.33,30.27,30.23,10,10,10,13,3,17,0.00,0,,226
2013-12-14,41,36,32,37,30,21,100,78,53,30.28,30.09,29.75,10,8,2,10,2,,0.58,7,Rain,5
2013-12-15,53,43,33,39,29,19,100,66,30,30.00,29.82,29.66,10,8,0,10,5,18,0.00,2,Fog,238
2013-12-16,48,39,30,30,26,23,93,63,40,30.14,30.08,29.99,10,10,10,9,4,,0.00,1,,223
2013-12-17,55,42,28,43,32,27,100,76,38,30.09,30.00,29.89,10,9,5,8,3,,0.29,2,Rain-Thunderstorm,227
2013-12-18,46,36,26,34,18,10,93,48,23,30.23,30.16,29.99,10,10,10,14,3,20,0.02,0,,241
2013-12-19,64,46,28,23,17,12,80,36,13,30.23,30.19,30.13,10,10,10,13,5,18,0.00,0,,199
2013-12-20,66,55,44,43,33,19,63,45,30,30.17,30.12,30.04,10,10,10,16,9,25,0.00,0,,204
2013-12-21,71,62,53,63,52,43,88,68,50,30.09,30.03,29.96,10,10,10,17,9,26,0.00,3,,199
2013-12-22,73,68,62,68,62,61,100,84,69,30.04,29.98,29.92,10,10,7,18,12,29,0.41,7,Rain,197
2013-12-23,66,55,42,64,57,32,100,90,58,30.18,30.03,29.95,10,10,7,13,6,18,0.37,7,Rain,219
2013-12-24,44,36,26,32,19,1,100,52,26,30.45,30.27,30.17,10,10,10,8,4,16,0.00,2,,320
2013-12-25,35,27,19,18,8,1,93,49,24,30.55,30.46,30.37,10,10,10,8,2,,0.00,0,,59
2013-12-26,53,36,19,19,16,10,93,54,22,30.37,30.29,30.20,10,10,10,13,2,,0.00,0,,227
2013-12-27,53,37,21,25,17,10,93,51,18,30.44,30.38,30.33,10,10,10,10,2,18,0.00,0,,201
2013-12-28,60,42,23,34,19,10,86,46,14,30.36,30.27,30.15,10,10,10,10,4,,0.00,1,Rain,214
2013-12-29,55,47,39,48,42,36,100,84,62,30.15,29.84,29.62,10,8,1,13,3,20,1.12,5,Rain,244
2013-12-30,53,43,33,41,33,27,100,70,41,30.14,30.01,29.86,10,10,10,6,3,,0.00,1,,253
2013-12-31,51,40,28,34,20,7,100,51,16,30.32,30.19,30.13,10,10,5,15,4,21,0.00,2,Rain,248